Time;durP1;ratioP1;P1;durP2;ratioP2;P2;SDS_P1;SDS_P2;PMS_P1;PMS_P2;Temp;Humidity;BMP_temperature;BMP_pressure;BME280_temperature;BME280_humidity;BME280_pressure;Samples;Min_cycle;Max_cycle;Signal;HPM_P1;HPM_P2
2023/01/27 00:01:23;;;;;;;59.80;28.90;;;;;;;0.19;80.94;100148.69;212435;1300;140601;-64
2023/01/27 00:06:26;;;;;;;57.30;29.60;;;;;;;0.22;80.83;100150.20;212979;1300;139987;-65
2023/01/27 00:16:54;;;;;;;56.30;27.30;;;;;;;0.24;80.66;100139.99;212977;1300;139678;-65
2023/01/27 00:27:19;;;;;;;58.80;30.30;;;;;;;0.24;81.27;100151.66;212680;1303;139699;-65
2023/01/27 00:37:46;;;;;;;54.70;28.20;;;;;;;0.29;81.26;100159.06;212047;1300;140380;-65
2023/01/27 00:42:48;;;;;;;60.00;29.60;;;;;;;0.34;80.87;100162.86;210744;1298;140790;-65
2023/01/27 00:48:00;;;;;;;57.90;28.80;;;;;;;0.33;80.71;100165.02;210870;1292;141728;-64
2023/01/27 00:53:02;;;;;;;56.40;27.30;;;;;;;0.31;80.66;100165.25;210657;1299;140828;-64
2023/01/27 00:58:05;;;;;;;52.90;26.70;;;;;;;0.31;80.95;100165.94;210375;1291;140722;-64
2023/01/27 01:03:07;;;;;;;56.00;27.30;;;;;;;0.28;81.01;100168.40;210847;1291;139532;-64
2023/01/27 01:08:09;;;;;;;59.30;27.00;;;;;;;0.27;81.01;100164.33;210518;1290;139300;-65
2023/01/27 01:13:11;;;;;;;49.90;28.40;;;;;;;0.21;81.18;100163.54;211257;1290;139602;-64
2023/01/27 01:18:14;;;;;;;51.50;26.00;;;;;;;0.10;80.68;100164.36;210645;1303;139998;-64
2023/01/27 01:23:18;;;;;;;53.10;28.50;;;;;;;0.02;80.85;100163.73;210175;1284;139911;-64
2023/01/27 01:28:20;;;;;;;47.50;26.10;;;;;;;-0.02;80.83;100164.45;210637;1290;140295;-64
2023/01/27 01:33:22;;;;;;;59.60;30.60;;;;;;;-0.03;80.96;100155.88;210265;1291;140434;-64
2023/01/27 01:38:25;;;;;;;59.10;28.30;;;;;;;-0.01;81.16;100155.13;210305;1291;140962;-64
2023/01/27 01:43:31;;;;;;;61.00;31.70;;;;;;;0.03;80.87;100156.83;211078;1291;140190;-64
2023/01/27 01:48:59;;;;;;;55.00;27.20;;;;;;;0.02;80.93;100159.89;211257;1298;140037;-64
2023/01/27 01:54:07;;;;;;;48.20;24.20;;;;;;;-0.00;81.00;100157.18;211275;1303;139368;-64
2023/01/27 01:59:16;;;;;;;56.40;27.70;;;;;;;-0.04;80.93;100157.86;210189;1298;139906;-64
2023/01/27 02:04:25;;;;;;;57.30;29.70;;;;;;;0.02;80.98;100156.10;212892;1295;141523;-64
2023/01/27 02:09:31;;;;;;;59.00;31.00;;;;;;;0.09;81.24;100157.84;212964;1297;140598;-66
2023/01/27 02:14:35;;;;;;;60.10;29.50;;;;;;;0.18;81.43;100159.70;212997;1287;139977;-67
2023/01/27 02:20:06;;;;;;;57.30;27.50;;;;;;;0.23;81.14;100162.84;210536;1291;139362;-67
2023/01/27 02:25:33;;;;;;;63.10;28.50;;;;;;;0.18;80.69;100163.52;210989;1297;141577;-66
2023/01/27 02:30:38;;;;;;;51.60;26.70;;;;;;;0.25;81.13;100167.86;211083;1290;140636;-67
2023/01/27 02:35:48;;;;;;;56.10;30.30;;;;;;;0.31;81.18;100171.73;211420;1301;142354;-66
2023/01/27 02:40:56;;;;;;;59.30;28.50;;;;;;;0.36;81.37;100170.08;210134;1290;140569;-66
2023/01/27 02:46:02;;;;;;;57.90;30.00;;;;;;;0.38;81.68;100170.69;209905;1304;139976;-65
2023/01/27 02:51:05;;;;;;;56.30;29.70;;;;;;;0.37;81.44;100168.38;210453;1297;139562;-63
2023/01/27 02:56:08;;;;;;;57.70;31.40;;;;;;;0.35;81.63;100170.34;211496;1291;139807;-64
2023/01/27 03:01:11;;;;;;;61.60;30.40;;;;;;;0.34;81.29;100167.09;210543;1300;141779;-63
2023/01/27 03:06:17;;;;;;;55.70;27.90;;;;;;;0.30;81.44;100169.56;210756;1289;141988;-63
2023/01/27 03:22:02;;;;;;;65.80;30.10;;;;;;;0.24;81.55;100172.70;211445;1297;139427;-64
2023/01/27 03:27:04;;;;;;;45.70;25.70;;;;;;;0.19;81.50;100168.81;210393;1298;140030;-63
2023/01/27 03:32:05;;;;;;;57.50;29.00;;;;;;;0.14;81.55;100178.64;211421;1297;139375;-65
2023/01/27 03:47:53;;;;;;;59.00;31.10;;;;;;;0.20;81.81;100178.48;211194;1294;140723;-65
2023/01/27 03:53:02;;;;;;;53.30;27.10;;;;;;;0.27;81.89;100174.95;212396;1298;139821;-66
2023/01/27 03:58:19;;;;;;;57.70;32.00;;;;;;;0.32;82.29;100175.11;210810;1298;139586;-67
2023/01/27 04:08:47;;;;;;;69.10;28.50;;;;;;;0.29;82.05;100178.79;209826;1290;140399;-64
2023/01/27 04:13:51;;;;;;;61.70;28.30;;;;;;;0.29;81.77;100181.27;211116;1297;141195;-64
2023/01/27 04:18:54;;;;;;;78.40;36.10;;;;;;;0.27;81.75;100175.70;212942;1284;140708;-65
2023/01/27 04:23:59;;;;;;;76.70;36.00;;;;;;;0.25;82.06;100175.06;211389;1294;139417;-64
2023/01/27 04:29:03;;;;;;;71.30;31.10;;;;;;;0.24;81.98;100181.06;212090;1297;139631;-64
2023/01/27 04:34:09;;;;;;;70.20;35.30;;;;;;;0.22;81.90;100188.26;210403;1290;140348;-64
2023/01/27 04:39:14;;;;;;;72.50;29.00;;;;;;;0.17;81.81;100196.49;210771;1294;140964;-64
2023/01/27 04:44:20;;;;;;;69.40;27.30;;;;;;;0.19;82.11;100192.24;210908;1295;140918;-63
2023/01/27 04:49:25;;;;;;;71.70;34.30;;;;;;;0.26;82.03;100188.84;211425;1292;140231;-64
2023/01/27 04:54:30;;;;;;;68.70;30.70;;;;;;;0.28;82.02;100190.75;212112;1300;139539;-65
2023/01/27 04:59:34;;;;;;;66.90;33.20;;;;;;;0.30;82.05;100192.33;210132;1296;140560;-66
2023/01/27 05:04:37;;;;;;;82.80;35.80;;;;;;;0.30;82.28;100189.35;210322;1305;140134;-65
2023/01/27 05:09:41;;;;;;;102.40;44.10;;;;;;;0.30;82.42;100189.58;210211;1297;139626;-65
2023/01/27 05:14:43;;;;;;;96.00;41.70;;;;;;;0.27;82.04;100200.29;210702;1290;140601;-65
2023/01/27 05:19:45;;;;;;;83.00;34.50;;;;;;;0.31;82.09;100205.70;210210;1292;141373;-65
2023/01/27 05:24:49;;;;;;;83.60;37.30;;;;;;;0.33;81.90;100207.52;210925;1291;141032;-64
2023/01/27 05:29:53;;;;;;;93.60;41.20;;;;;;;0.33;82.03;100211.95;210731;1290;139363;-64
2023/01/27 05:34:58;;;;;;;73.40;34.60;;;;;;;0.32;82.26;100213.72;210677;1301;140364;-63
2023/01/27 05:40:01;;;;;;;77.90;38.00;;;;;;;0.33;82.18;100223.81;212468;1297;141140;-64
2023/01/27 05:45:05;;;;;;;66.20;31.70;;;;;;;0.33;81.96;100225.52;211131;1298;140597;-63
2023/01/27 05:50:09;;;;;;;73.30;35.10;;;;;;;0.37;82.02;100217.84;211270;1297;140861;-64
2023/01/27 05:55:12;;;;;;;78.40;40.30;;;;;;;0.38;82.02;100223.32;211544;1297;139875;-65
2023/01/27 06:00:17;;;;;;;78.40;36.30;;;;;;;0.36;81.88;100227.02;211273;1287;139339;-65
2023/01/27 06:05:21;;;;;;;79.00;40.10;;;;;;;0.36;82.36;100230.39;212176;1299;139320;-65
2023/01/27 06:10:23;;;;;;;70.70;34.50;;;;;;;0.33;82.14;100240.53;213022;1296;140230;-67
2023/01/27 06:15:27;;;;;;;69.80;33.70;;;;;;;0.32;82.12;100243.65;211808;1296;140140;-67
2023/01/27 06:20:30;;;;;;;77.20;35.30;;;;;;;0.32;82.14;100250.60;212761;1296;140008;-67
2023/01/27 06:25:43;;;;;;;59.50;29.60;;;;;;;0.36;82.13;100253.23;210150;1297;141048;-69
2023/01/27 06:30:46;;;;;;;71.30;32.40;;;;;;;0.38;82.33;100255.84;211734;1290;139662;-67
2023/01/27 06:35:50;;;;;;;63.00;32.80;;;;;;;0.36;82.02;100263.23;211021;1292;140307;-63
2023/01/27 06:40:53;;;;;;;63.40;31.00;;;;;;;0.32;82.26;100266.69;211307;1299;140663;-67
2023/01/27 06:45:59;;;;;;;66.30;31.90;;;;;;;0.32;82.16;100272.13;210884;1296;140487;-64
2023/01/27 06:51:03;;;;;;;78.60;35.80;;;;;;;0.39;82.48;100272.55;209977;1292;142875;-65
2023/01/27 06:56:07;;;;;;;67.60;34.20;;;;;;;0.43;82.81;100281.24;210894;1304;139664;-65
2023/01/27 07:01:10;;;;;;;68.00;32.10;;;;;;;0.47;82.44;100284.35;210321;1292;139586;-63
2023/01/27 07:06:15;;;;;;;67.60;32.50;;;;;;;0.44;82.55;100282.86;210213;1298;139902;-63
2023/01/27 07:11:18;;;;;;;81.10;37.70;;;;;;;0.42;82.75;100287.66;209980;1306;140080;-63
2023/01/27 07:16:21;;;;;;;86.10;37.20;;;;;;;0.41;82.55;100283.53;210321;1293;139895;-66
2023/01/27 07:21:25;;;;;;;77.70;34.00;;;;;;;0.42;82.41;100282.70;210444;1297;141246;-64
2023/01/27 07:26:27;;;;;;;90.40;38.00;;;;;;;0.38;82.40;100283.99;210484;1299;140353;-62
2023/01/27 07:31:33;;;;;;;82.40;40.10;;;;;;;0.36;82.30;100283.64;210638;1291;139959;-64
2023/01/27 07:36:37;;;;;;;75.20;36.10;;;;;;;0.31;82.91;100284.16;210663;1298;139919;-67
2023/01/27 07:41:41;;;;;;;78.00;32.80;;;;;;;0.29;82.48;100286.61;210226;1299;139466;-61
2023/01/27 07:46:44;;;;;;;68.80;28.30;;;;;;;0.19;82.20;100290.63;211297;1306;140916;-66
2023/01/27 07:51:49;;;;;;;60.20;25.50;;;;;;;0.16;82.50;100297.97;210377;1291;139561;-65
2023/01/27 07:56:52;;;;;;;97.60;40.90;;;;;;;0.12;82.51;100303.93;210766;1297;140303;-65
2023/01/27 08:01:55;;;;;;;83.60;36.30;;;;;;;0.21;82.87;100300.08;210611;1297;209457;-65
2023/01/27 08:07:00;;;;;;;62.80;27.30;;;;;;;0.38;82.66;100297.11;213042;1297;141283;-65
2023/01/27 08:12:04;;;;;;;93.40;35.50;;;;;;;0.39;82.58;100300.02;212538;1291;140779;-66
2023/01/27 08:17:07;;;;;;;82.90;36.20;;;;;;;0.50;83.03;100301.15;211880;1300;140754;-68
2023/01/27 08:22:11;;;;;;;88.60;33.80;;;;;;;0.62;82.73;100300.61;211729;1290;140107;-66
2023/01/27 08:27:15;;;;;;;87.10;32.90;;;;;;;0.76;82.71;100298.84;210988;1298;140316;-66
2023/01/27 08:32:18;;;;;;;98.30;37.90;;;;;;;0.84;82.78;100304.83;209706;1296;142589;-66
2023/01/27 08:37:20;;;;;;;81.10;34.00;;;;;;;0.87;82.53;100306.38;210763;1293;139983;-65
2023/01/27 08:42:25;;;;;;;73.40;29.50;;;;;;;0.86;82.60;100309.69;211180;1293;140376;-65
2023/01/27 08:47:27;;;;;;;91.70;37.70;;;;;;;0.85;82.44;100318.64;209859;1300;495519;-64
2023/01/27 08:52:30;;;;;;;89.90;36.30;;;;;;;0.83;82.76;100320.96;210916;1298;140003;-64
2023/01/27 08:57:34;;;;;;;92.90;40.10;;;;;;;0.79;82.97;100332.06;210052;1290;141516;-65
2023/01/27 09:02:39;;;;;;;83.30;34.90;;;;;;;0.73;82.73;100333.60;210278;1298;139779;-65
2023/01/27 09:07:43;;;;;;;81.20;33.10;;;;;;;0.74;83.14;100335.91;210130;1296;141018;-65
2023/01/27 09:12:46;;;;;;;93.70;38.60;;;;;;;0.80;83.00;100339.68;210760;1297;139633;-65
2023/01/27 09:17:49;;;;;;;95.90;40.20;;;;;;;0.86;83.14;100348.17;210702;1296;139841;-64
2023/01/27 09:22:54;;;;;;;96.90;39.20;;;;;;;0.82;82.92;100346.33;211738;1296;140761;-64
2023/01/27 09:27:59;;;;;;;90.20;34.50;;;;;;;0.85;82.76;100345.98;210147;1296;140208;-66
2023/01/27 09:33:02;;;;;;;85.30;30.20;;;;;;;0.90;82.81;100351.74;211243;1290;141393;-65
2023/01/27 09:38:06;;;;;;;84.40;37.00;;;;;;;0.90;82.75;100356.44;210462;1298;140995;-65
2023/01/27 09:43:14;;;;;;;76.20;38.30;;;;;;;0.90;82.81;100356.27;210332;1290;140085;-65
2023/01/27 09:48:40;;;;;;;92.50;34.20;;;;;;;0.89;82.94;100359.25;211003;1298;139712;-66
2023/01/27 09:54:07;;;;;;;78.40;33.50;;;;;;;0.89;82.50;100358.14;210047;1295;140436;-68
2023/01/27 09:59:27;;;;;;;80.20;31.70;;;;;;;0.95;82.90;100355.64;210289;1298;140562;-67
2023/01/27 10:04:29;;;;;;;80.00;32.70;;;;;;;1.00;82.43;100359.31;210377;1291;141984;-67
2023/01/27 10:09:40;;;;;;;66.90;29.70;;;;;;;1.08;82.25;100353.48;211338;1298;139367;-67
2023/01/27 10:15:12;;;;;;;71.40;29.60;;;;;;;1.23;82.80;100359.20;212304;1301;139463;-67
2023/01/27 10:20:20;;;;;;;67.70;29.90;;;;;;;1.42;82.43;100361.77;210633;1297;140767;-67
2023/01/27 10:25:43;;;;;;;51.90;25.00;;;;;;;1.51;82.13;100364.42;212468;1298;140531;-68
2023/01/27 10:31:14;;;;;;;64.30;24.40;;;;;;;1.55;81.89;100368.38;210883;1290;139884;-68
2023/01/27 10:36:37;;;;;;;74.90;28.60;;;;;;;1.67;81.95;100368.84;211452;1284;141736;-67
2023/01/27 10:42:01;;;;;;;58.50;27.20;;;;;;;1.76;81.61;100367.97;210157;1294;142120;-64
2023/01/27 10:47:12;;;;;;;67.50;28.00;;;;;;;1.79;81.71;100367.88;210915;1297;140219;-67
2023/01/27 10:52:27;;;;;;;56.70;26.80;;;;;;;1.75;81.61;100369.13;210735;1290;140082;-65
2023/01/27 10:57:47;;;;;;;57.20;25.80;;;;;;;1.72;81.05;100368.75;210082;1290;139916;-66
2023/01/27 11:03:20;;;;;;;79.80;36.10;;;;;;;1.56;81.08;100370.20;211090;1290;140843;-65
2023/01/27 11:08:48;;;;;;;71.30;28.60;;;;;;;1.53;81.77;100368.98;210020;1284;229557;-66
2023/01/27 11:14:09;;;;;;;72.00;31.00;;;;;;;1.50;81.17;100361.40;210287;1293;139546;-65
2023/01/27 11:19:20;;;;;;;80.50;33.40;;;;;;;1.47;80.98;100355.31;210285;1294;140621;-66
2023/01/27 11:24:38;;;;;;;79.50;36.10;;;;;;;1.45;81.80;100349.52;210744;1284;139712;-67
2023/01/27 11:29:52;;;;;;;82.30;30.90;;;;;;;1.45;81.54;100347.10;210029;1291;139608;-66
2023/01/27 11:41:12;;;;;;;92.60;36.60;;;;;;;1.35;81.45;100344.79;209880;1297;139180;-66
2023/01/27 11:46:22;;;;;;;92.60;37.20;;;;;;;1.24;81.76;100343.65;210845;1293;140804;-65
2023/01/27 11:51:37;;;;;;;104.80;40.30;;;;;;;1.22;81.98;100344.55;212334;1292;140309;-65
2023/01/27 11:56:45;;;;;;;106.80;39.90;;;;;;;1.25;81.88;100341.44;212512;1300;140156;-66
2023/01/27 12:02:08;;;;;;;102.50;40.50;;;;;;;1.29;82.19;100339.67;210323;1302;140420;-66
2023/01/27 12:07:50;;;;;;;84.50;34.00;;;;;;;1.29;82.08;100345.42;209514;1301;140734;-66
2023/01/27 12:12:55;;;;;;;99.80;36.40;;;;;;;1.29;81.93;100341.92;212055;1297;141987;-66
2023/01/27 12:18:09;;;;;;;85.50;35.70;;;;;;;1.27;81.98;100339.35;212589;1300;140014;-66
2023/01/27 12:23:24;;;;;;;86.20;34.80;;;;;;;1.26;82.31;100347.65;210094;1298;140192;-65
2023/01/27 12:28:33;;;;;;;94.40;33.80;;;;;;;1.33;82.37;100352.48;211392;1301;139176;-64
2023/01/27 12:33:40;;;;;;;110.60;42.00;;;;;;;1.39;81.98;100350.71;210397;1294;140235;-63
2023/01/27 12:38:54;;;;;;;90.40;36.30;;;;;;;1.44;82.02;100347.94;211108;1291;140430;-65
2023/01/27 12:44:14;;;;;;;93.80;34.40;;;;;;;1.47;82.06;100344.41;211010;1291;141395;-65
2023/01/27 12:49:20;;;;;;;83.10;28.30;;;;;;;1.47;81.82;100342.17;210815;1299;140364;-67
2023/01/27 12:54:31;;;;;;;70.10;30.30;;;;;;;1.51;81.85;100342.81;210475;1299;140836;-67
2023/01/27 12:59:41;;;;;;;74.00;30.30;;;;;;;1.52;81.92;100345.81;210653;1290;140538;-65
2023/01/27 13:05:01;;;;;;;62.80;28.70;;;;;;;1.53;81.73;100341.20;210457;1299;139740;-65
2023/01/27 13:10:19;;;;;;;91.60;32.70;;;;;;;1.46;81.47;100339.23;211418;1291;139585;-65
2023/01/27 13:15:27;;;;;;;79.10;31.10;;;;;;;1.46;81.38;100345.27;210237;1291;140574;-63
2023/01/27 13:20:54;;;;;;;74.60;28.80;;;;;;;1.52;81.99;100339.84;212169;1291;139527;-65
2023/01/27 13:26:12;;;;;;;81.50;31.80;;;;;;;1.61;82.02;100346.42;211569;1300;139255;-67
2023/01/27 13:31:21;;;;;;;82.00;34.20;;;;;;;1.63;81.79;100348.66;211380;1298;139769;-68
2023/01/27 13:36:37;;;;;;;82.40;33.60;;;;;;;1.63;81.02;100355.13;211924;1291;141200;-67
2023/01/27 13:41:55;;;;;;;72.70;32.30;;;;;;;1.59;81.38;100364.94;210562;1290;139970;-67
2023/01/27 13:47:11;;;;;;;66.90;28.30;;;;;;;1.54;81.29;100369.73;210786;1291;139328;-67
2023/01/27 13:52:14;;;;;;;70.40;30.70;;;;;;;1.50;81.22;100371.28;212951;1289;139894;-66
2023/01/27 13:57:37;;;;;;;70.20;28.20;;;;;;;1.45;81.46;100367.42;212508;1299;140953;-65
2023/01/27 14:03:14;;;;;;;71.50;29.90;;;;;;;1.48;81.22;100370.61;210082;1299;139917;-66
2023/01/27 14:08:53;;;;;;;58.30;26.20;;;;;;;1.39;81.14;100378.93;210457;1284;161811;-65
2023/01/27 14:14:16;;;;;;;83.90;31.80;;;;;;;1.23;81.33;100375.45;210882;1290;140136;-65
2023/01/27 14:19:30;;;;;;;72.80;31.70;;;;;;;1.20;81.36;100380.19;211457;1297;140729;-63
2023/01/27 14:24:44;;;;;;;84.40;34.00;;;;;;;1.15;81.57;100385.05;212079;1300;139895;-65
2023/01/27 14:30:16;;;;;;;81.90;34.30;;;;;;;1.13;81.98;100387.59;210172;1290;140072;-64
2023/01/27 14:35:24;;;;;;;73.00;31.70;;;;;;;1.08;81.83;100394.23;210806;1293;140085;-65
2023/01/27 14:40:39;;;;;;;70.30;34.00;;;;;;;1.09;81.88;100389.20;210399;1291;141410;-63
2023/01/27 14:46:01;;;;;;;78.60;33.90;;;;;;;1.09;82.07;100391.06;210610;1292;139363;-63
2023/01/27 14:51:30;;;;;;;74.30;33.50;;;;;;;1.07;82.38;100387.31;210897;1300;139517;-63
2023/01/27 14:56:58;;;;;;;97.20;35.90;;;;;;;1.05;82.24;100389.14;210414;1291;140443;-63
2023/01/27 15:02:09;;;;;;;;;;;;;;;1.05;82.54;100389.95;210972;1300;139873;-63
2023/01/27 15:07:39;;;;;;;84.00;34.60;;;;;;;1.01;82.55;100392.39;210751;1297;126614;-64
2023/01/27 15:12:47;;;;;;;85.70;43.80;;;;;;;0.97;82.72;100396.02;210294;1291;139988;-64
2023/01/27 15:18:09;;;;;;;82.20;34.30;;;;;;;0.92;82.75;100395.50;210774;1284;139910;-65
2023/01/27 15:23:48;;;;;;;83.00;33.80;;;;;;;0.92;82.47;100398.98;210464;1298;140185;-66
2023/01/27 15:28:51;;;;;;;79.40;38.60;;;;;;;0.92;82.45;100398.59;211017;1291;140075;-68
2023/01/27 15:34:20;;;;;;;72.80;31.90;;;;;;;0.89;82.97;100400.50;210822;1291;139667;-68
2023/01/27 15:39:23;;;;;;;64.40;29.20;;;;;;;0.84;82.55;100410.27;211239;1284;140234;-64
2023/01/27 15:45:03;;;;;;;74.50;33.70;;;;;;;0.82;82.75;100411.92;211158;1290;139971;-67
2023/01/27 15:50:25;;;;;;;62.60;29.80;;;;;;;0.81;82.67;100407.27;212697;1301;140847;-67
2023/01/27 15:55:31;;;;;;;70.30;32.90;;;;;;;0.75;82.67;100411.39;209966;1300;140598;-68
2023/01/27 16:00:41;;;;;;;75.80;32.10;;;;;;;0.72;82.52;100414.87;212954;1293;140079;-69
2023/01/27 16:05:50;;;;;;;67.40;31.30;;;;;;;0.73;82.66;100426.98;210500;1292;140915;-67
2023/01/27 16:11:22;;;;;;;80.80;35.30;;;;;;;0.73;82.81;100430.30;209600;1291;140410;-69
2023/01/27 16:16:29;;;;;;;71.50;31.40;;;;;;;0.74;82.96;100432.50;209741;1290;140048;-65
2023/01/27 16:21:56;;;;;;;72.50;32.20;;;;;;;0.75;82.50;100435.70;211726;1290;140925;-63
2023/01/27 16:27:18;;;;;;;63.70;30.00;;;;;;;0.73;82.50;100432.23;210445;1291;140902;-64
2023/01/27 16:32:25;;;;;;;59.50;29.90;;;;;;;0.70;82.86;100430.77;211114;1291;139764;-64
2023/01/27 16:37:36;;;;;;;72.30;26.80;;;;;;;0.67;83.17;100426.35;210164;1298;139594;-66
2023/01/27 16:43:01;;;;;;;67.00;28.30;;;;;;;0.66;83.00;100433.65;210095;1290;139907;-63
2023/01/27 16:48:12;;;;;;;61.10;27.90;;;;;;;0.63;82.69;100437.64;209893;1293;139743;-65
2023/01/27 16:53:21;;;;;;;61.70;30.70;;;;;;;0.58;82.86;100440.73;209778;1292;139928;-65
2023/01/27 16:58:26;;;;;;;71.60;35.10;;;;;;;0.54;83.11;100438.52;210298;1291;139924;-66
2023/01/27 17:03:48;;;;;;;68.60;33.50;;;;;;;0.54;83.22;100437.98;210962;1284;140345;-68
2023/01/27 17:08:51;;;;;;;62.70;29.30;;;;;;;0.56;83.53;100439.75;209854;1299;139747;-67
2023/01/27 17:14:00;;;;;;;66.30;27.90;;;;;;;0.55;83.53;100441.02;209896;1297;140397;-67
2023/01/27 17:19:09;;;;;;;69.10;30.10;;;;;;;0.58;83.27;100445.44;211648;1290;140096;-64
2023/01/27 17:24:51;;;;;;;76.00;33.40;;;;;;;0.60;83.42;100450.86;210743;1300;140190;-69
2023/01/27 17:30:22;;;;;;;68.60;32.00;;;;;;;0.63;83.49;100454.43;209356;1299;140306;-68
2023/01/27 17:35:36;;;;;;;61.10;28.60;;;;;;;0.61;83.61;100454.13;210959;1294;140847;-65
2023/01/27 17:40:44;;;;;;;63.50;27.70;;;;;;;0.59;83.55;100455.17;210474;1290;139974;-64
2023/01/27 17:45:47;;;;;;;72.30;31.50;;;;;;;0.60;83.72;100459.25;212828;1290;142038;-65
2023/01/27 17:50:50;;;;;;;75.80;30.70;;;;;;;0.62;83.61;100460.29;211405;1293;141282;-64
2023/01/27 17:55:54;;;;;;;67.20;31.00;;;;;;;0.62;83.60;100464.70;212572;1293;140253;-66
2023/01/27 18:00:57;;;;;;;68.20;30.20;;;;;;;0.61;83.19;100466.79;210355;1291;140499;-70
2023/01/27 18:06:03;;;;;;;70.60;29.50;;;;;;;0.58;83.30;100468.88;209766;1293;140297;-66
2023/01/27 18:11:20;;;;;;;63.70;29.00;;;;;;;0.57;83.47;100467.27;211928;1281;140857;-66
2023/01/27 18:16:24;;;;;;;75.10;30.20;;;;;;;0.59;83.31;100465.51;211166;1284;140943;-64
2023/01/27 18:21:27;;;;;;;62.50;28.10;;;;;;;0.62;83.72;100465.17;210826;1291;140543;-64
2023/01/27 18:26:41;;;;;;;70.50;29.20;;;;;;;0.62;83.47;100465.86;210057;1293;139276;-63
2023/01/27 18:31:47;;;;;;;56.70;25.60;;;;;;;0.60;83.93;100469.95;210519;1293;139378;-64
2023/01/27 18:37:00;;;;;;;64.30;25.70;;;;;;;0.58;83.62;100478.00;210400;1291;140311;-66
2023/01/27 18:42:13;;;;;;;68.30;31.10;;;;;;;0.60;83.96;100485.91;210206;1297;140783;-69
2023/01/27 18:47:19;;;;;;;64.10;28.30;;;;;;;0.61;84.02;100490.27;209873;1291;140459;-68
2023/01/27 18:52:22;;;;;;;58.10;25.90;;;;;;;0.60;83.82;100495.13;209669;1297;140389;-67
2023/01/27 18:57:25;;;;;;;45.70;24.40;;;;;;;0.58;84.09;100499.66;211082;1295;141212;-65
2023/01/27 19:02:28;;;;;;;42.40;23.40;;;;;;;0.53;83.78;100498.51;210065;1298;141495;-64
2023/01/27 19:07:32;;;;;;;45.30;21.60;;;;;;;0.50;83.86;100505.40;210523;1297;140384;-66
2023/01/27 19:12:37;;;;;;;52.10;22.90;;;;;;;0.49;83.97;100510.70;209743;1290;139803;-65
2023/01/27 19:17:44;;;;;;;45.70;21.80;;;;;;;0.46;83.81;100516.61;210775;1297;140856;-69
2023/01/27 19:22:50;;;;;;;40.60;20.00;;;;;;;0.45;83.69;100514.85;209702;1283;140048;-67
2023/01/27 19:28:02;;;;;;;40.40;20.40;;;;;;;0.45;83.73;100509.61;212656;1276;141147;-67
2023/01/27 19:33:18;;;;;;;44.10;19.10;;;;;;;0.45;84.22;100514.48;212577;1301;141063;-66
2023/01/27 19:38:28;;;;;;;45.90;21.70;;;;;;;0.48;84.16;100516.95;212786;1304;140621;-66
2023/01/27 19:43:35;;;;;;;37.30;17.50;;;;;;;0.50;84.00;100527.30;212874;1298;141199;-66
2023/01/27 19:48:44;;;;;;;36.10;17.60;;;;;;;0.47;84.02;100530.91;212574;1304;140751;-66
2023/01/27 19:53:57;;;;;;;32.80;14.90;;;;;;;0.47;84.16;100535.95;212443;1292;223937;-64
2023/01/27 19:59:04;;;;;;;29.70;16.00;;;;;;;0.43;83.63;100538.11;212189;1297;140823;-63
2023/01/27 20:04:11;;;;;;;35.10;19.40;;;;;;;0.44;83.96;100538.91;212235;1298;140606;-65
2023/01/27 20:09:17;;;;;;;30.90;16.20;;;;;;;0.46;84.05;100547.27;210806;1296;140614;-67
2023/01/27 20:14:24;;;;;;;30.80;14.80;;;;;;;0.43;84.00;100549.80;212336;1306;140480;-67
2023/01/27 20:19:31;;;;;;;;;;;;;;;0.39;83.75;100554.17;212868;1296;140757;-66
2023/01/27 20:24:35;;;;;;;33.00;14.30;;;;;;;0.33;83.91;100556.54;210886;1297;125992;-64
2023/01/27 20:29:40;;;;;;;24.70;13.40;;;;;;;0.26;83.83;100555.60;211519;1298;139840;-66
2023/01/27 20:34:44;;;;;;;26.90;15.80;;;;;;;0.22;83.87;100555.33;210498;1296;139958;-66
2023/01/27 20:39:48;;;;;;;27.20;14.80;;;;;;;0.20;83.84;100560.05;210088;1290;140794;-65
2023/01/27 20:44:55;;;;;;;23.80;13.10;;;;;;;0.14;83.77;100560.64;210634;1298;140515;-63
2023/01/27 20:50:01;;;;;;;27.00;14.30;;;;;;;0.11;84.19;100559.41;210020;1296;392580;-65
2023/01/27 20:55:08;;;;;;;27.30;13.10;;;;;;;0.11;84.08;100562.12;210718;1297;141176;-65
2023/01/27 21:00:19;;;;;;;31.90;16.10;;;;;;;0.06;84.49;100558.05;211878;1291;141249;-67
2023/01/27 21:05:23;;;;;;;23.30;15.50;;;;;;;0.04;84.29;100555.64;211034;1291;141096;-67
2023/01/27 21:10:34;;;;;;;30.60;15.60;;;;;;;0.04;84.40;100556.16;210718;1297;140928;-66
2023/01/27 21:15:45;;;;;;;28.50;12.90;;;;;;;0.04;84.56;100557.98;210856;1298;160000;-68
2023/01/27 21:20:50;;;;;;;28.30;15.10;;;;;;;-0.02;84.57;100557.79;211803;1295;140342;-67
2023/01/27 21:25:55;;;;;;;21.60;13.10;;;;;;;-0.04;84.59;100557.01;210257;1297;140257;-67
2023/01/27 21:31:13;;;;;;;20.80;10.30;;;;;;;-0.06;84.81;100546.86;210861;1299;143441;-67
2023/01/27 21:36:18;;;;;;;25.20;12.10;;;;;;;-0.10;84.85;100546.16;212724;1304;140902;-66
2023/01/27 21:47:00;;;;;;;30.60;16.20;;;;;;;-0.05;85.06;100552.54;211888;1300;141540;-70
2023/01/27 21:52:04;;;;;;;27.00;14.30;;;;;;;-0.01;85.33;100553.17;212788;1300;141276;-66
2023/01/27 21:57:09;;;;;;;30.80;17.10;;;;;;;0.00;84.89;100554.42;212716;1306;141462;-70
2023/01/27 22:02:14;;;;;;;30.50;15.40;;;;;;;0.06;85.21;100549.92;211662;1300;140724;-67
2023/01/27 22:07:18;;;;;;;28.90;13.90;;;;;;;0.07;84.83;100551.35;212089;1296;140441;-66
2023/01/27 22:12:22;;;;;;;26.50;14.30;;;;;;;0.04;85.13;100548.86;211468;1298;140611;-65
2023/01/27 22:17:26;;;;;;;24.30;13.80;;;;;;;0.03;84.85;100546.13;211829;1298;147333;-68
2023/01/27 22:22:30;;;;;;;30.70;15.40;;;;;;;0.02;85.21;100547.63;210237;1306;139981;-64
2023/01/27 22:27:40;;;;;;;29.90;16.80;;;;;;;0.00;84.98;100540.50;210517;1296;139383;-63
2023/01/27 22:32:45;;;;;;;25.80;15.60;;;;;;;-0.01;84.97;100539.19;210354;1298;140253;-63
2023/01/27 22:37:51;;;;;;;26.60;15.50;;;;;;;-0.05;85.06;100543.08;210113;1299;141186;-62
2023/01/27 22:43:08;;;;;;;26.00;12.90;;;;;;;-0.08;84.90;100542.31;211510;1304;140608;-64
2023/01/27 22:48:12;;;;;;;26.20;16.90;;;;;;;-0.09;84.99;100545.39;210360;1299;141156;-62
2023/01/27 22:53:14;;;;;;;29.30;13.10;;;;;;;-0.12;85.06;100540.95;210289;1296;142392;-64
2023/01/27 22:58:17;;;;;;;26.80;13.30;;;;;;;-0.12;85.21;100540.65;210737;1300;141398;-62
2023/01/27 23:03:20;;;;;;;32.20;15.20;;;;;;;-0.14;84.94;100534.31;210946;1300;139985;-66
2023/01/27 23:08:23;;;;;;;30.00;16.20;;;;;;;-0.13;85.10;100536.69;210492;1298;140977;-62
2023/01/27 23:13:26;;;;;;;29.40;14.90;;;;;;;-0.13;85.31;100536.85;210560;1291;140620;-65
2023/01/27 23:18:29;;;;;;;31.90;17.00;;;;;;;-0.15;84.93;100537.02;210771;1302;141303;-62
2023/01/27 23:23:33;;;;;;;25.90;15.60;;;;;;;-0.13;85.21;100531.09;211921;1303;140357;-62
2023/01/27 23:28:39;;;;;;;24.20;13.90;;;;;;;-0.11;85.01;100522.91;212851;1298;140502;-65
2023/01/27 23:33:43;;;;;;;30.10;17.50;;;;;;;-0.11;85.02;100513.45;211000;1300;140892;-67
2023/01/27 23:38:46;;;;;;;26.30;14.40;;;;;;;-0.11;85.20;100510.17;212698;1301;142077;-65
2023/01/27 23:43:51;;;;;;;23.60;13.60;;;;;;;-0.13;84.99;100513.79;212172;1299;141047;-65
2023/01/27 23:48:55;;;;;;;30.50;16.90;;;;;;;-0.15;84.63;100508.61;211263;1291;140603;-65
2023/01/27 23:53:58;;;;;;;27.00;13.80;;;;;;;-0.13;84.95;100516.30;211831;1299;140578;-64
2023/01/27 23:59:02;;;;;;;37.50;16.00;;;;;;;-0.09;85.05;100521.47;212138;1298;141149;-64
